Αρχική σελίδα
METAR-TAF:

METAR-TAF

Αεροδρόμια :

Τζιμπουτί, Τζιμπουτί

γεωγραφικό πλάτος: 11-33N, γεωγραφικό μήκος: 043-10E, υψόμετρο: 49 μ

METAR: λείπει

Χρόνος: 22:07 (19:07 UTC)

Πρόγνωση Καιρού

Η αναφορά έγινε 20 ώρες και 7 λεπτά πριν, στις 23:00 UTC
Η πρόγνωση ισχύει από τις 30 στις 00 UTC έως τις 30 στις 24 UTC
Άνεμος 10 kt από Ν/ΝΔ
Ορατότητα: 8000 μ
Λίγα νέφη σε ύψος 2000 πόδια
καταχνιά
Καθιστάμενος
από 30 στις 06 UTC έως τις 30 στις 12 UTC
Άνεμος 10 kt από Α/BA με ριπές μέχρι 15 kt
Ορατότητα: 9000 μ
Λίγα νέφη σε ύψος 2300 πόδια
καταχνιά
Καθιστάμενος
από 30 στις 15 UTC έως τις 30 στις 21 UTC
Άνεμος 10 kt από Ν/ΝΔ
Καθαρός ουρανός

TAF: HDAM 292300Z 3000/3024 20010KT 8000 HZ FEW020 BECMG 3006/3012 06010G15KT 9000 HZ FEW023 BECMG 3015/3021 21010KT SKC

Μετεωρολογικές αναφορές και προγνώσεις για περισσότερα από 4000 αεροδρόμια (δελτία METAR και TAF).

Οι διαθέσιμοι σταθμοί απεικονίζονται στο χάρτη με κίτρινες και κόκκινες κουκκίδες.

Μετακινήστε το ποντίκι πάνω από τις κουκκίδες για να δείτε το όνομα του σταθμού.

Στη συνέχεια, κάντε κλικ για να δείτε τις μετεωρολογικές αναφορές και τις προγνώσεις καιρού.

Για να αλλάξετε το χάρτη: κάντε κλικ στα πράσινα κουμπιά με τον μαύρο σταυρό για να ζουμάρετε, στο πράσινο κουμπί με την παύλα για να αφαιρέσετε το ζουμ ή στα πράσινα βέλη για να αντιπαραβάλλετε χάρτες.


METAR-TAF: